createdAt,value
2019-05-07T00:00:59.064Z,6.23
2019-05-07T00:03:25.584Z,6.03
2019-05-07T00:05:53.994Z,6.33
2019-05-07T00:08:22.931Z,5.43
2019-05-07T00:10:49.587Z,5.67
2019-05-07T00:13:16.070Z,5.90
2019-05-07T00:15:42.632Z,5.73
2019-05-07T00:18:09.306Z,6.47
2019-05-07T00:20:35.846Z,5.77
2019-05-07T00:23:03.054Z,5.87
2019-05-07T00:25:29.929Z,6.07
2019-05-07T00:27:56.714Z,6.57
2019-05-07T00:30:23.511Z,6.20
2019-05-07T00:32:50.019Z,6.83
2019-05-07T00:35:22.460Z,6.70
2019-05-07T00:37:54.599Z,7.63
2019-05-07T00:40:43.378Z,7.73
2019-05-07T00:43:18.614Z,7.10
2019-05-07T00:45:57.425Z,7.00
2019-05-07T00:48:25.331Z,7.17
2019-05-07T00:50:56.431Z,7.07
2019-05-07T00:53:23.805Z,7.97
2019-05-07T00:55:52.569Z,6.60
2019-05-07T00:58:19.041Z,8.03
2019-05-07T01:00:46.866Z,7.27
2019-05-07T01:03:13.616Z,7.67
2019-05-07T01:05:40.440Z,9.07
2019-05-07T01:08:07.012Z,7.23
2019-05-07T01:10:34.674Z,7.50
2019-05-07T01:13:02.718Z,7.17
2019-05-07T01:15:32.143Z,6.70
2019-05-07T01:17:58.096Z,7.90
2019-05-07T01:20:25.740Z,7.20
2019-05-07T01:22:54.439Z,7.20
2019-05-07T01:25:22.091Z,6.87
2019-05-07T01:27:48.705Z,7.33
2019-05-07T01:30:15.277Z,6.37
2019-05-07T01:32:53.102Z,7.67
2019-05-07T01:35:24.822Z,6.70
2019-05-07T01:37:52.405Z,7.77
2019-05-07T01:40:19.241Z,7.63
2019-05-07T01:42:45.791Z,7.27
2019-05-07T01:45:13.835Z,7.57
2019-05-07T01:47:42.420Z,8.20
2019-05-07T01:50:08.842Z,8.60
2019-05-07T01:52:35.409Z,7.93
2019-05-07T01:55:03.171Z,8.37
2019-05-07T01:57:29.978Z,7.80
2019-05-07T01:59:56.446Z,8.30
2019-05-07T02:02:34.104Z,8.73
2019-05-07T02:05:26.759Z,7.67
2019-05-07T02:07:57.005Z,7.53
2019-05-07T02:10:31.951Z,7.47
2019-05-07T02:12:58.418Z,7.20
2019-05-07T02:15:24.927Z,8.07
2019-05-07T02:17:52.586Z,7.57
2019-05-07T02:20:19.381Z,8.23
2019-05-07T02:22:46.986Z,8.33
2019-05-07T02:25:13.796Z,8.30
2019-05-07T02:27:42.047Z,7.60
2019-05-07T02:30:09.020Z,8.50
2019-05-07T02:32:35.796Z,8.60
2019-05-07T02:35:04.019Z,8.80
2019-05-07T02:37:56.861Z,8.63
2019-05-07T02:40:38.081Z,8.87
2019-05-07T02:43:05.989Z,9.10
2019-05-07T02:45:49.198Z,8.43
2019-05-07T02:48:18.698Z,9.43
2019-05-07T02:50:59.540Z,8.43
2019-05-07T02:53:35.268Z,9.30
2019-05-07T02:56:03.738Z,8.77
2019-05-07T02:58:33.063Z,9.53
2019-05-07T03:01:29.324Z,9.40
2019-05-07T03:03:55.866Z,9.00
2019-05-07T03:06:23.270Z,10.00
2019-05-07T03:08:53.234Z,9.17
2019-05-07T03:11:18.471Z,9.77
2019-05-07T03:13:45.215Z,9.30
2019-05-07T03:16:13.162Z,9.30
2019-05-07T03:18:39.955Z,10.40
2019-05-07T03:21:12.808Z,9.77
2019-05-07T03:23:47.523Z,10.10
2019-05-07T03:26:23.205Z,9.20
2019-05-07T03:28:53.591Z,10.73
2019-05-07T03:31:35.538Z,9.67
2019-05-07T03:34:07.294Z,9.57
2019-05-07T03:36:39.350Z,11.10
2019-05-07T03:39:06.135Z,10.17
2019-05-07T03:41:34.066Z,10.20
2019-05-07T03:44:03.675Z,10.37
2019-05-07T03:46:33.530Z,11.73
2019-05-07T03:48:59.223Z,10.53
2019-05-07T03:51:25.828Z,9.43
2019-05-07T03:53:53.656Z,11.07
2019-05-07T03:56:23.402Z,10.47
2019-05-07T03:58:48.841Z,9.57
2019-05-07T04:01:15.544Z,11.60
2019-05-07T04:04:13.290Z,10.63
2019-05-07T04:06:43.189Z,10.43
2019-05-07T04:09:08.586Z,10.37
2019-05-07T04:11:35.494Z,10.87
2019-05-07T04:14:02.808Z,10.63
2019-05-07T04:16:29.401Z,11.07
2019-05-07T04:18:56.016Z,10.73
2019-05-07T04:21:23.201Z,10.40
2019-05-07T04:23:54.417Z,10.50
2019-05-07T04:26:33.886Z,10.50
2019-05-07T04:29:05.795Z,11.20
2019-05-07T04:31:43.041Z,10.83
2019-05-07T04:34:16.475Z,11.73
2019-05-07T04:36:46.013Z,10.97
2019-05-07T04:39:13.446Z,12.13
2019-05-07T04:41:43.213Z,10.73
2019-05-07T04:44:09.034Z,12.23
2019-05-07T04:46:35.613Z,11.87
2019-05-07T04:49:03.648Z,12.17
2019-05-07T04:51:37.665Z,11.80
2019-05-07T04:54:04.297Z,11.70
2019-05-07T04:56:33.150Z,11.63
2019-05-07T04:58:59.773Z,12.10
2019-05-07T05:01:28.644Z,11.67
2019-05-07T05:03:55.320Z,12.80
2019-05-07T05:06:24.110Z,12.00
2019-05-07T05:08:55.688Z,12.87
2019-05-07T05:11:20.043Z,11.97
2019-05-07T05:13:46.967Z,11.87
2019-05-07T05:16:23.081Z,11.77
2019-05-07T05:18:51.712Z,13.27
2019-05-07T05:21:50.266Z,13.03
2019-05-07T05:24:24.769Z,12.60
2019-05-07T05:26:52.588Z,13.33
2019-05-07T05:29:19.234Z,13.23
2019-05-07T05:31:47.511Z,13.87
2019-05-07T05:34:14.441Z,12.77
2019-05-07T05:36:42.440Z,14.10
2019-05-07T05:39:09.537Z,12.40
2019-05-07T05:41:38.004Z,14.20
2019-05-07T05:44:12.903Z,13.43
2019-05-07T05:46:39.591Z,14.27
2019-05-07T05:49:06.393Z,14.43
2019-05-07T05:51:55.230Z,15.37
2019-05-07T05:54:42.620Z,15.43
2019-05-07T05:57:34.637Z,15.53
2019-05-07T06:00:21.920Z,14.20
2019-05-07T06:03:02.536Z,15.43
2019-05-07T06:05:59.081Z,14.90
2019-05-07T06:08:32.464Z,15.93
2019-05-07T06:11:05.857Z,14.67
2019-05-07T06:13:55.382Z,15.13
2019-05-07T06:16:25.465Z,14.83
2019-05-07T06:19:05.829Z,15.60
2019-05-07T06:22:07.073Z,14.87
2019-05-07T06:24:47.268Z,15.30
2019-05-07T06:27:14.008Z,15.17
2019-05-07T06:29:42.617Z,15.93
2019-05-07T06:32:12.136Z,15.23
2019-05-07T06:34:41.654Z,14.50
2019-05-07T06:37:07.555Z,14.10
2019-05-07T06:39:42.131Z,16.03
2019-05-07T06:42:26.844Z,15.17
2019-05-07T06:45:03.127Z,13.67
2019-05-07T06:47:31.897Z,14.37
2019-05-07T06:49:59.827Z,14.57
2019-05-07T06:52:26.783Z,15.23
2019-05-07T06:54:53.785Z,13.10
2019-05-07T06:57:22.279Z,15.13
2019-05-07T06:59:53.196Z,13.87
2019-05-07T07:02:25.320Z,14.07
2019-05-07T07:04:56.563Z,15.23
2019-05-07T07:07:34.734Z,14.70
2019-05-07T07:10:12.753Z,14.90
2019-05-07T07:12:49.020Z,14.93
2019-05-07T07:15:15.947Z,15.83
2019-05-07T07:17:43.079Z,13.60
2019-05-07T07:20:12.717Z,13.07
2019-05-07T07:22:42.438Z,14.40
2019-05-07T07:25:09.096Z,13.70
2019-05-07T07:27:48.562Z,14.40
2019-05-07T07:30:36.937Z,13.17
2019-05-07T07:33:05.485Z,12.23
2019-05-07T07:35:32.415Z,11.63
2019-05-07T07:38:02.446Z,12.57
2019-05-07T07:40:42.188Z,11.50
2019-05-07T07:43:08.904Z,10.63
2019-05-07T07:45:47.158Z,11.13
2019-05-07T07:48:28.144Z,11.13
2019-05-07T07:51:03.590Z,10.40
2019-05-07T07:53:38.140Z,10.87
2019-05-07T07:56:23.180Z,12.07
2019-05-07T07:58:57.337Z,13.07
2019-05-07T08:01:33.010Z,13.03
2019-05-07T08:03:59.871Z,13.03
2019-05-07T08:06:28.664Z,13.63
2019-05-07T08:08:55.291Z,14.47
2019-05-07T08:11:22.088Z,13.80
2019-05-07T08:13:48.981Z,13.63
2019-05-07T08:16:15.738Z,14.57
2019-05-07T08:18:43.570Z,13.87
2019-05-07T08:21:12.025Z,14.77
2019-05-07T08:23:38.890Z,16.03
2019-05-07T08:26:05.578Z,14.70
2019-05-07T08:28:32.265Z,15.27
2019-05-07T08:31:14.268Z,14.23
2019-05-07T08:33:51.721Z,13.53
2019-05-07T08:36:18.276Z,13.40
2019-05-07T08:38:52.761Z,14.80
2019-05-07T08:41:22.340Z,16.60
2019-05-07T08:43:51.656Z,14.87
2019-05-07T08:46:29.611Z,15.00
2019-05-07T08:48:56.638Z,13.43
2019-05-07T08:51:23.307Z,14.60
2019-05-07T08:54:04.165Z,13.27
2019-05-07T08:56:31.869Z,10.97
2019-05-07T08:59:01.981Z,10.80
2019-05-07T09:01:28.551Z,11.50
2019-05-07T09:03:55.091Z,11.50
2019-05-07T09:06:32.590Z,11.20
2019-05-07T09:08:59.356Z,9.40
2019-05-07T09:11:26.306Z,9.17
2019-05-07T09:13:52.960Z,11.07
2019-05-07T09:16:19.608Z,8.50
2019-05-07T09:18:46.421Z,8.93
2019-05-07T09:21:13.238Z,7.33
2019-05-07T09:23:42.202Z,6.70
2019-05-07T09:26:10.383Z,6.97
2019-05-07T09:29:02.631Z,7.13
2019-05-07T09:31:56.060Z,7.70
2019-05-07T09:34:24.106Z,8.80
2019-05-07T09:36:52.664Z,8.33
2019-05-07T09:39:22.124Z,7.80
2019-05-07T09:41:48.980Z,8.07
2019-05-07T09:44:15.814Z,6.37
2019-05-07T09:46:46.642Z,5.67
2019-05-07T09:49:13.248Z,5.67
2019-05-07T09:51:42.704Z,6.00
2019-05-07T09:54:09.586Z,7.00
2019-05-07T09:56:42.242Z,6.13
2019-05-07T09:59:09.173Z,6.23
2019-05-07T10:01:36.241Z,5.70
2019-05-07T10:04:03.250Z,5.97
2019-05-07T10:06:32.000Z,6.10
2019-05-07T10:08:58.941Z,5.70
2019-05-07T10:11:32.929Z,5.97
2019-05-07T10:14:06.582Z,7.00
2019-05-07T10:16:52.436Z,5.73
2019-05-07T10:19:19.225Z,5.37
2019-05-07T10:21:46.210Z,5.37
2019-05-07T10:24:13.136Z,5.30
2019-05-07T10:26:40.230Z,5.60
2019-05-07T10:29:07.055Z,5.60
2019-05-07T10:31:35.780Z,5.00
2019-05-07T10:34:03.183Z,5.33
2019-05-07T10:36:32.028Z,5.30
2019-05-07T10:38:58.984Z,4.97
2019-05-07T10:41:25.681Z,5.50
2019-05-07T10:43:52.516Z,4.63
2019-05-07T10:46:29.265Z,5.10
2019-05-07T10:49:09.695Z,4.90
2019-05-07T10:51:36.392Z,5.17
2019-05-07T10:54:03.520Z,4.70
2019-05-07T10:56:32.622Z,4.03
2019-05-07T10:59:18.187Z,4.20
2019-05-07T11:01:51.997Z,4.17
2019-05-07T11:04:19.094Z,4.63
2019-05-07T11:06:45.909Z,3.87
2019-05-07T11:09:12.939Z,4.50
2019-05-07T11:11:39.699Z,4.50
2019-05-07T11:14:06.511Z,4.40
2019-05-07T11:16:44.532Z,4.07
2019-05-07T11:19:12.790Z,4.50
2019-05-07T11:21:41.768Z,3.63
2019-05-07T11:24:08.344Z,4.57
2019-05-07T11:26:36.551Z,3.90
2019-05-07T11:29:06.767Z,3.80
2019-05-07T11:31:34.863Z,3.43
2019-05-07T11:34:02.809Z,3.70
2019-05-07T11:36:32.057Z,4.30
2019-05-07T11:38:59.385Z,4.13
2019-05-07T11:41:38.987Z,4.33
2019-05-07T11:44:12.287Z,4.50
2019-05-07T11:46:57.660Z,3.60
2019-05-07T11:49:32.605Z,4.30
2019-05-07T11:52:15.012Z,4.67
2019-05-07T11:54:42.161Z,4.23
2019-05-07T11:57:08.765Z,4.00
2019-05-07T11:59:35.388Z,4.37
2019-05-07T12:02:04.921Z,3.87
2019-05-07T12:04:32.159Z,4.20
2019-05-07T12:07:02.560Z,3.97
2019-05-07T12:09:29.093Z,4.00
2019-05-07T12:11:55.867Z,3.90
2019-05-07T12:14:31.313Z,3.93
2019-05-07T12:16:51.834Z,4.20
2019-05-07T12:19:18.751Z,3.50
2019-05-07T12:21:45.747Z,3.87
2019-05-07T12:24:15.999Z,3.33
2019-05-07T12:26:43.146Z,3.17
2019-05-07T12:29:11.801Z,2.90
2019-05-07T12:31:57.837Z,3.17
2019-05-07T12:34:46.338Z,3.13
2019-05-07T12:37:12.948Z,3.30
2019-05-07T12:39:39.610Z,3.33
2019-05-07T12:42:06.301Z,3.67
2019-05-07T12:44:33.214Z,3.10
2019-05-07T12:47:01.706Z,3.40
2019-05-07T12:49:28.520Z,3.40
2019-05-07T12:52:02.284Z,3.37
2019-05-07T12:55:00.421Z,3.47
2019-05-07T12:57:29.575Z,3.10
2019-05-07T12:59:58.810Z,2.90
2019-05-07T13:02:40.084Z,3.63
2019-05-07T13:05:03.491Z,3.20
2019-05-07T13:07:50.871Z,3.30
2019-05-07T13:10:18.576Z,3.57
2019-05-07T13:12:45.328Z,3.50
2019-05-07T13:15:23.871Z,3.00
2019-05-07T13:17:41.694Z,3.77
2019-05-07T13:20:08.774Z,3.60
2019-05-07T13:22:36.646Z,3.80
2019-05-07T13:25:03.796Z,3.40
2019-05-07T13:27:31.992Z,3.37
2019-05-07T13:30:03.419Z,3.63
2019-05-07T13:32:32.004Z,4.23
2019-05-07T13:34:59.195Z,4.07
2019-05-07T13:37:28.175Z,3.87
2019-05-07T13:40:02.816Z,3.60
2019-05-07T13:42:45.295Z,3.43
2019-05-07T13:45:27.999Z,3.20
2019-05-07T13:48:02.730Z,3.77
2019-05-07T13:50:29.972Z,3.63
2019-05-07T13:52:56.788Z,3.53
2019-05-07T13:55:23.574Z,3.50
2019-05-07T13:57:52.271Z,3.27
2019-05-07T14:00:28.394Z,3.50
2019-05-07T14:02:55.161Z,3.60
2019-05-07T14:05:22.982Z,3.23
2019-05-07T14:07:49.718Z,3.20
2019-05-07T14:10:19.759Z,3.67
2019-05-07T14:12:47.101Z,3.40
2019-05-07T14:15:16.374Z,3.50
2019-05-07T14:17:45.051Z,3.57
2019-05-07T14:20:13.126Z,3.97
2019-05-07T14:22:39.880Z,3.63
2019-05-07T14:25:08.411Z,3.70
2019-05-07T14:27:38.656Z,3.60
2019-05-07T14:30:05.638Z,3.73
2019-05-07T14:32:47.338Z,3.97
2019-05-07T14:35:36.431Z,3.30
2019-05-07T14:38:07.154Z,3.83
2019-05-07T14:40:33.847Z,3.53
2019-05-07T14:43:08.393Z,3.53
2019-05-07T14:45:35.211Z,3.80
2019-05-07T14:48:02.945Z,3.50
2019-05-07T14:50:30.454Z,4.17
2019-05-07T14:52:57.217Z,4.00
2019-05-07T14:55:23.958Z,4.07
2019-05-07T14:57:52.418Z,3.87
2019-05-07T15:00:19.283Z,4.23
2019-05-07T15:02:45.952Z,4.07
2019-05-07T15:05:12.805Z,4.10
2019-05-07T15:07:39.603Z,4.03
2019-05-07T15:10:07.396Z,4.17
2019-05-07T15:12:34.126Z,4.13
2019-05-07T15:15:02.173Z,4.47
2019-05-07T15:17:38.417Z,3.93
2019-05-07T15:20:05.998Z,4.00
2019-05-07T15:22:49.470Z,3.40
2019-05-07T15:25:14.157Z,4.00
2019-05-07T15:27:43.611Z,4.40
2019-05-07T15:30:13.962Z,4.57
2019-05-07T15:32:42.820Z,4.40
2019-05-07T15:35:09.990Z,4.53
2019-05-07T15:37:37.612Z,4.37
2019-05-07T15:40:06.465Z,4.73
2019-05-07T15:42:33.073Z,3.73
2019-05-07T15:45:02.118Z,3.43
2019-05-07T15:47:35.723Z,4.10
2019-05-07T15:50:04.140Z,4.17
2019-05-07T15:52:57.988Z,4.50
2019-05-07T15:55:17.864Z,3.40
2019-05-07T15:57:44.532Z,4.00
2019-05-07T16:00:14.560Z,4.03
2019-05-07T16:02:46.485Z,4.23
2019-05-07T16:05:16.935Z,4.43
2019-05-07T16:07:48.957Z,4.00
2019-05-07T16:10:23.353Z,3.90
2019-05-07T16:12:53.462Z,3.97
2019-05-07T16:15:22.101Z,4.27
2019-05-07T16:17:55.816Z,4.37
2019-05-07T16:20:22.987Z,4.17
2019-05-07T16:22:55.107Z,4.07
2019-05-07T16:25:23.742Z,4.57
2019-05-07T16:27:52.623Z,4.70
2019-05-07T16:30:19.182Z,4.13
2019-05-07T16:32:45.917Z,4.50
2019-05-07T16:35:18.559Z,3.97
2019-05-07T16:37:47.357Z,4.60
2019-05-07T16:40:23.214Z,4.10
2019-05-07T16:43:06.446Z,4.13
2019-05-07T16:45:35.945Z,4.30
2019-05-07T16:48:04.105Z,4.70
2019-05-07T16:50:32.828Z,4.77
2019-05-07T16:53:05.168Z,4.07
2019-05-07T16:55:36.852Z,3.90
2019-05-07T16:58:12.534Z,4.97
2019-05-07T17:00:43.879Z,4.10
2019-05-07T17:03:15.844Z,5.03
2019-05-07T17:05:42.867Z,4.40
2019-05-07T17:08:27.809Z,3.97
2019-05-07T17:10:54.512Z,4.10
2019-05-07T17:13:21.427Z,4.43
2019-05-07T17:15:54.951Z,4.23
2019-05-07T17:18:22.463Z,3.87
2019-05-07T17:20:52.318Z,4.43
2019-05-07T17:23:25.159Z,4.43
2019-05-07T17:25:53.701Z,5.47
2019-05-07T17:28:22.696Z,4.27
2019-05-07T17:30:48.924Z,4.10
2019-05-07T17:33:15.597Z,4.60
2019-05-07T17:35:45.876Z,4.37
2019-05-07T17:38:12.858Z,4.43
2019-05-07T17:40:39.798Z,4.57
2019-05-07T17:43:06.638Z,3.93
2019-05-07T17:45:33.533Z,4.40
2019-05-07T17:48:03.119Z,4.83
2019-05-07T17:50:37.650Z,4.70
2019-05-07T17:53:05.556Z,3.50
2019-05-07T17:55:33.326Z,3.60
2019-05-07T17:58:01.998Z,4.20
2019-05-07T18:00:29.972Z,4.20
2019-05-07T18:03:29.418Z,3.87
2019-05-07T18:05:56.264Z,4.47
2019-05-07T18:08:23.232Z,3.97
2019-05-07T18:10:49.971Z,4.77
2019-05-07T18:13:16.614Z,5.90
2019-05-07T18:15:46.170Z,4.57
2019-05-07T18:18:16.932Z,4.23
2019-05-07T18:20:43.542Z,4.77
2019-05-07T18:23:14.886Z,4.63
2019-05-07T18:25:38.814Z,4.97
2019-05-07T18:28:08.868Z,5.73
2019-05-07T18:30:36.574Z,5.37
2019-05-07T18:33:22.092Z,5.33
2019-05-07T18:35:52.405Z,5.47
2019-05-07T18:38:19.282Z,5.77
2019-05-07T18:40:46.087Z,5.30
2019-05-07T18:43:12.696Z,5.03
2019-05-07T18:45:39.461Z,4.97
2019-05-07T18:48:06.668Z,6.00
2019-05-07T18:50:33.676Z,6.37
2019-05-07T18:53:00.222Z,5.37
2019-05-07T18:55:26.928Z,4.50
2019-05-07T18:57:53.551Z,4.60
2019-05-07T19:00:28.687Z,3.43
2019-05-07T19:02:55.311Z,3.33
2019-05-07T19:05:22.278Z,3.63
2019-05-07T19:08:02.347Z,4.00
2019-05-07T19:10:18.115Z,4.47
2019-05-07T19:12:44.887Z,4.17
2019-05-07T19:15:12.749Z,4.27
2019-05-07T19:17:39.556Z,4.27
2019-05-07T19:20:06.168Z,4.13
2019-05-07T19:22:33.157Z,4.83
2019-05-07T19:25:00.007Z,4.47
2019-05-07T19:27:32.675Z,4.20
2019-05-07T19:29:59.771Z,4.33
2019-05-07T19:32:26.724Z,3.90
2019-05-07T19:34:53.617Z,4.77
2019-05-07T19:37:22.265Z,5.00
2019-05-07T19:39:48.700Z,4.90
2019-05-07T19:42:15.278Z,5.37
2019-05-07T19:44:42.296Z,5.40
2019-05-07T19:47:09.026Z,4.83
2019-05-07T19:49:35.658Z,4.80
2019-05-07T19:52:02.609Z,5.10
2019-05-07T19:54:31.824Z,5.83
2019-05-07T19:56:59.467Z,4.63
2019-05-07T19:59:26.099Z,4.83
2019-05-07T20:01:56.752Z,5.53
2019-05-07T20:04:23.481Z,5.23
2019-05-07T20:06:52.291Z,5.50
2019-05-07T20:09:23.272Z,5.60
2019-05-07T20:11:52.146Z,5.43
2019-05-07T20:14:18.829Z,5.77
2019-05-07T20:16:45.635Z,5.57
2019-05-07T20:19:12.397Z,5.83
2019-05-07T20:21:41.776Z,5.40
2019-05-07T20:24:12.267Z,6.43
2019-05-07T20:26:43.169Z,5.70
2019-05-07T20:29:12.445Z,6.53
2019-05-07T20:31:42.252Z,6.67
2019-05-07T20:34:13.141Z,5.13
2019-05-07T20:36:47.950Z,6.77
2019-05-07T20:39:14.908Z,6.90
2019-05-07T20:41:42.933Z,6.97
2019-05-07T20:44:12.866Z,6.50
2019-05-07T20:46:42.313Z,6.97
2019-05-07T20:49:13.072Z,6.80
2019-05-07T20:51:41.897Z,7.03
2019-05-07T20:54:39.310Z,6.43
2019-05-07T20:57:32.968Z,6.70
2019-05-07T21:00:03.705Z,6.63
2019-05-07T21:02:44.859Z,6.77
2019-05-07T21:05:03.003Z,7.07
2019-05-07T21:07:43.456Z,7.43
2019-05-07T21:10:02.175Z,7.47
2019-05-07T21:12:36.035Z,6.73
2019-05-07T21:15:06.457Z,7.33
2019-05-07T21:17:53.321Z,7.23
2019-05-07T21:20:23.183Z,6.90
2019-05-07T21:23:12.060Z,6.90
2019-05-07T21:25:45.835Z,7.57
2019-05-07T21:28:13.022Z,6.87
2019-05-07T21:31:02.905Z,7.87
2019-05-07T21:33:40.242Z,6.80
2019-05-07T21:36:13.874Z,7.47
2019-05-07T21:38:42.589Z,7.43
2019-05-07T21:41:13.468Z,7.23
2019-05-07T21:44:04.146Z,7.13
2019-05-07T21:46:33.275Z,7.90
2019-05-07T21:49:03.137Z,7.30
2019-05-07T21:51:35.904Z,8.20
2019-05-07T21:54:31.292Z,7.67
2019-05-07T21:57:19.375Z,7.90
2019-05-07T21:59:52.080Z,7.80
2019-05-07T22:02:32.727Z,7.20
2019-05-07T22:04:54.867Z,7.97
2019-05-07T22:07:22.911Z,7.20
2019-05-07T22:09:52.360Z,8.43
2019-05-07T22:12:20.103Z,7.57
2019-05-07T22:14:49.460Z,6.47
2019-05-07T22:17:29.593Z,7.40
2019-05-07T22:20:14.257Z,6.83
2019-05-07T22:22:43.018Z,7.60
2019-05-07T22:25:13.106Z,8.17
2019-05-07T22:27:42.997Z,7.20
2019-05-07T22:30:34.192Z,7.67
2019-05-07T22:33:12.900Z,8.07
2019-05-07T22:35:42.927Z,7.03
2019-05-07T22:38:13.825Z,8.30
2019-05-07T22:40:43.384Z,7.53
2019-05-07T22:43:10.107Z,7.93
2019-05-07T22:45:39.342Z,8.20
2019-05-07T22:48:12.233Z,7.43
2019-05-07T22:50:42.357Z,7.27
2019-05-07T22:53:22.043Z,8.00
2019-05-07T22:55:52.608Z,7.83
2019-05-07T22:58:25.060Z,8.03
2019-05-07T23:00:58.628Z,8.17
2019-05-07T23:03:25.131Z,8.43
2019-05-07T23:05:56.403Z,7.90
2019-05-07T23:08:32.866Z,8.47
2019-05-07T23:11:02.932Z,7.50
2019-05-07T23:13:31.874Z,8.10
2019-05-07T23:16:02.724Z,7.87
2019-05-07T23:18:32.519Z,8.23
2019-05-07T23:21:02.697Z,8.00
2019-05-07T23:23:32.572Z,8.43
2019-05-07T23:26:14.768Z,8.70
2019-05-07T23:28:41.930Z,7.53
2019-05-07T23:31:14.566Z,8.03
2019-05-07T23:33:48.626Z,8.67
2019-05-07T23:36:15.002Z,9.10
2019-05-07T23:38:42.638Z,7.50
2019-05-07T23:41:28.384Z,8.50
2019-05-07T23:44:14.006Z,9.07
2019-05-07T23:46:44.759Z,8.13
2019-05-07T23:49:14.343Z,8.80
2019-05-07T23:51:43.679Z,8.60
2019-05-07T23:54:12.119Z,8.87
2019-05-07T23:56:42.683Z,8.17
2019-05-07T23:59:14.458Z,8.13
